Time;durP1;ratioP1;P1;durP2;ratioP2;P2;SDS_P1;SDS_P2;PMS_P1;PMS_P2;Temp;Humidity;BMP_temperature;BMP_pressure;BME280_temperature;BME280_humidity;BME280_pressure;Samples;Min_cycle;Max_cycle;Signal;HPM_P1;HPM_P2
2022/04/21 00:00:48;;;;;;;7.88;4.75;;;7.60;99.90;;;;;;5048653;28;20055;-86
2022/04/21 00:03:14;;;;;;;9.90;4.93;;;7.60;99.90;;;;;;5016777;28;20044;-85
2022/04/21 00:05:40;;;;;;;8.70;4.72;;;7.70;99.90;;;;;;5047635;28;20573;-85
2022/04/21 00:08:05;;;;;;;8.48;5.18;;;7.50;99.90;;;;;;5035105;28;20124;-85
2022/04/21 00:10:31;;;;;;;11.35;5.90;;;7.40;99.90;;;;;;5022355;28;20053;-85
2022/04/21 00:12:58;;;;;;;9.73;5.10;;;7.40;99.90;;;;;;5073239;28;20045;-85
2022/04/21 00:15:25;;;;;;;8.10;5.18;;;7.30;99.90;;;;;;5046211;28;20073;-85
2022/04/21 00:17:51;;;;;;;9.57;4.50;;;7.30;99.90;;;;;;5023082;28;20064;-85
2022/04/21 00:20:17;;;;;;;7.78;5.50;;;7.30;99.90;;;;;;5051099;28;20069;-88
2022/04/21 00:25:27;;;;;;;9.15;5.45;;;7.20;99.90;;;;;;5072777;28;20099;-85
2022/04/21 00:27:54;;;;;;;7.95;4.82;;;7.10;99.90;;;;;;5040264;28;20502;-87
2022/04/21 00:30:20;;;;;;;11.50;4.80;;;7.10;99.90;;;;;;5058065;28;20466;-85
2022/04/21 00:32:46;;;;;;;10.00;5.35;;;7.10;99.90;;;;;;5036867;28;20052;-84
2022/04/21 00:35:13;;;;;;;10.23;5.60;;;7.10;99.90;;;;;;5050380;28;20513;-86
2022/04/21 00:37:49;;;;;;;11.77;5.35;;;7.10;99.90;;;;;;5057113;28;20044;-85
2022/04/21 00:40:16;;;;;;;10.85;5.68;;;6.90;99.90;;;;;;5073982;28;20509;-85
2022/04/21 00:42:43;;;;;;;9.73;5.30;;;6.90;99.90;;;;;;5073692;28;20049;-85
2022/04/21 00:45:09;;;;;;;10.65;5.47;;;6.90;99.90;;;;;;5056814;28;20052;-85
2022/04/21 00:47:40;;;;;;;10.00;5.93;;;6.80;99.90;;;;;;5073748;28;20056;-85
2022/04/21 00:50:10;;;;;;;8.73;5.43;;;6.80;99.90;;;;;;5066563;28;20119;-85
2022/04/21 00:52:37;;;;;;;10.75;5.88;;;6.70;99.90;;;;;;5036822;28;20063;-84
2022/04/21 00:55:03;;;;;;;9.85;6.03;;;6.70;99.90;;;;;;5031403;28;20053;-85
2022/04/21 00:57:28;;;;;;;7.78;5.60;;;6.60;99.90;;;;;;5033326;28;20049;-84
2022/04/21 00:59:54;;;;;;;8.48;5.15;;;6.60;99.90;;;;;;5000692;28;20044;-91
2022/04/21 01:05:04;;;;;;;11.10;6.45;;;6.50;99.90;;;;;;5049209;28;20095;-85
2022/04/21 01:08:09;;;;;;;11.88;5.80;;;6.40;99.90;;;;;;5051832;28;20518;-85
2022/04/21 01:10:36;;;;;;;9.48;5.90;;;6.40;99.90;;;;;;5054015;28;20064;-85
2022/04/21 01:13:06;;;;;;;10.10;5.95;;;6.40;99.90;;;;;;5019921;28;20084;-85
2022/04/21 01:15:32;;;;;;;9.30;5.75;;;6.40;99.90;;;;;;5053968;28;20549;-85
2022/04/21 01:17:57;;;;;;;8.80;6.03;;;6.60;99.90;;;;;;5016763;28;20469;-85
2022/04/21 01:20:25;;;;;;;12.60;5.95;;;6.40;99.90;;;;;;5008225;28;20033;-84
2022/04/21 01:23:09;;;;;;;9.20;5.60;;;6.40;99.90;;;;;;5015914;28;20144;-88
2022/04/21 01:25:39;;;;;;;11.07;5.82;;;6.60;99.90;;;;;;5033918;28;20103;-85
2022/04/21 01:28:05;;;;;;;9.23;6.15;;;6.40;99.90;;;;;;4999513;28;20049;-85
2022/04/21 01:30:31;;;;;;;8.68;6.10;;;6.40;99.90;;;;;;5033535;28;20055;-85
2022/04/21 01:32:56;;;;;;;9.45;5.72;;;6.40;99.90;;;;;;5016407;28;20049;-86
2022/04/21 01:35:22;;;;;;;9.27;5.88;;;6.30;99.90;;;;;;4999563;28;20053;-85
2022/04/21 01:43:35;;;;;;;10.27;6.72;;;6.20;99.90;;;;;;5035573;28;20142;-85
2022/04/21 01:46:02;;;;;;;10.40;6.50;;;6.10;99.90;;;;;;5042587;28;20045;-85
2022/04/21 01:48:28;;;;;;;11.30;6.70;;;6.10;99.90;;;;;;5033868;28;20081;-85
2022/04/21 01:50:53;;;;;;;13.57;7.05;;;6.10;99.90;;;;;;5016241;28;20130;-84
2022/04/21 01:53:37;;;;;;;10.80;7.15;;;6.10;99.90;;;;;;5033518;28;20045;-85
2022/04/21 01:56:03;;;;;;;9.93;6.25;;;6.10;99.90;;;;;;5041785;28;20040;-85
2022/04/21 01:58:29;;;;;;;13.10;6.60;;;6.10;99.90;;;;;;5034976;28;20049;-85
2022/04/21 02:00:55;;;;;;;9.43;6.40;;;6.10;99.90;;;;;;5047552;28;20058;-85
2022/04/21 02:03:20;;;;;;;11.25;6.18;;;6.10;99.90;;;;;;5015532;28;20132;-85
2022/04/21 02:05:46;;;;;;;12.23;7.53;;;6.00;99.90;;;;;;5015184;28;20038;-85
2022/04/21 02:08:12;;;;;;;12.02;7.47;;;5.90;99.90;;;;;;5051020;28;20049;-85
2022/04/21 02:10:38;;;;;;;10.90;7.32;;;5.90;99.90;;;;;;5018634;28;20053;-84
2022/04/21 02:13:05;;;;;;;13.18;7.00;;;5.80;99.90;;;;;;5051208;28;20076;-85
2022/04/21 02:15:31;;;;;;;10.90;7.70;;;5.80;99.90;;;;;;5036130;28;20092;-85
2022/04/21 02:17:59;;;;;;;11.82;6.68;;;5.70;99.90;;;;;;5020037;28;20499;-84
2022/04/21 02:20:24;;;;;;;11.05;7.25;;;5.60;99.90;;;;;;5033244;28;20132;-85
2022/04/21 02:22:50;;;;;;;13.60;7.32;;;5.60;99.90;;;;;;5016036;28;20542;-84
2022/04/21 02:25:17;;;;;;;13.57;7.60;;;5.60;99.90;;;;;;5016162;28;20041;-85
2022/04/21 02:27:45;;;;;;;13.00;7.15;;;5.60;99.90;;;;;;5005526;28;20038;-85
2022/04/21 02:30:13;;;;;;;12.20;7.45;;;5.60;99.90;;;;;;5022936;28;20050;-84
2022/04/21 02:32:39;;;;;;;11.32;7.45;;;5.60;99.90;;;;;;5028430;28;20411;-84
2022/04/21 02:35:06;;;;;;;12.82;7.28;;;5.70;99.90;;;;;;5016393;28;20056;-84
2022/04/21 02:37:36;;;;;;;12.70;8.15;;;5.60;99.90;;;;;;5015459;28;20060;-85
2022/04/21 02:40:03;;;;;;;17.13;7.47;;;5.60;99.90;;;;;;5033856;28;20053;-84
2022/04/21 02:42:28;;;;;;;13.88;7.35;;;5.60;99.90;;;;;;5022334;28;20090;-88
2022/04/21 02:44:54;;;;;;;12.20;7.90;;;5.90;99.90;;;;;;5030361;28;20037;-85
2022/04/21 02:47:19;;;;;;;12.77;8.63;;;5.50;99.90;;;;;;5032965;28;20108;-84
2022/04/21 02:49:48;;;;;;;11.13;7.88;;;5.50;99.90;;;;;;5015624;28;20091;-84
2022/04/21 02:52:14;;;;;;;15.30;8.30;;;5.50;99.90;;;;;;5016610;28;20132;-84
2022/04/21 02:57:27;;;;;;;12.07;8.10;;;5.40;99.90;;;;;;5032054;28;20132;-84
2022/04/21 02:59:59;;;;;;;12.18;7.82;;;5.30;99.90;;;;;;5015133;28;20523;-86
2022/04/21 03:02:25;;;;;;;18.67;8.75;;;5.30;99.90;;;;;;5032487;28;20084;-84
2022/04/21 03:04:52;;;;;;;14.75;8.60;;;5.20;99.90;;;;;;5028618;28;20475;-84
2022/04/21 03:07:20;;;;;;;14.18;9.05;;;5.20;99.90;;;;;;5034195;28;20642;-84
2022/04/21 03:09:46;;;;;;;15.82;9.00;;;5.30;99.90;;;;;;5017977;28;20135;-84
2022/04/21 03:12:12;;;;;;;11.77;8.27;;;5.20;99.90;;;;;;5034476;28;20053;-84
2022/04/21 03:14:39;;;;;;;16.65;8.57;;;5.30;99.90;;;;;;5028203;28;20474;-84
2022/04/21 03:17:06;;;;;;;13.50;8.85;;;5.20;99.90;;;;;;5055448;28;20123;-84
2022/04/21 03:19:33;;;;;;;13.82;7.95;;;5.20;99.90;;;;;;5037995;28;20044;-84
2022/04/21 03:25:21;;;;;;;12.75;8.50;;;5.20;99.90;;;;;;5055474;28;20064;-85
2022/04/21 03:27:50;;;;;;;17.55;9.18;;;5.10;99.90;;;;;;5024069;28;20038;-84
2022/04/21 03:30:16;;;;;;;12.55;8.95;;;5.10;99.90;;;;;;5027356;28;20067;-84
2022/04/21 03:32:42;;;;;;;13.23;7.82;;;5.10;99.90;;;;;;5037352;28;20486;-84
2022/04/21 03:35:08;;;;;;;14.77;9.05;;;5.10;99.90;;;;;;5036621;28;20041;-84
2022/04/21 03:37:33;;;;;;;14.00;8.57;;;5.10;99.90;;;;;;5037106;28;20048;-86
2022/04/21 03:39:59;;;;;;;11.98;8.88;;;5.10;99.90;;;;;;5037910;28;20053;-84
2022/04/21 03:42:27;;;;;;;14.90;8.65;;;5.00;99.90;;;;;;5055327;28;20055;-84
2022/04/21 03:44:54;;;;;;;14.68;9.02;;;5.00;99.90;;;;;;5037439;28;20049;-84
2022/04/21 03:47:21;;;;;;;16.80;9.75;;;5.00;99.90;;;;;;5053653;28;20041;-86
2022/04/21 03:49:47;;;;;;;12.63;8.77;;;4.90;99.90;;;;;;5033049;28;20445;-84
2022/04/21 03:52:13;;;;;;;16.40;9.32;;;4.90;99.90;;;;;;5034189;28;20053;-84
2022/04/21 03:54:40;;;;;;;14.80;9.70;;;4.90;99.90;;;;;;5037370;28;20119;-85
2022/04/21 03:57:06;;;;;;;14.73;9.43;;;4.90;99.90;;;;;;5034030;28;20103;-85
2022/04/21 03:59:33;;;;;;;15.13;9.90;;;4.90;99.90;;;;;;5035168;28;20041;-82
2022/04/21 04:02:04;;;;;;;14.90;9.30;;;4.90;99.90;;;;;;5021371;28;20883;-83
2022/04/21 04:04:31;;;;;;;14.25;9.45;;;5.10;99.90;;;;;;5017363;28;20053;-84
2022/04/21 04:12:34;;;;;;;14.85;9.32;;;4.90;99.90;;;;;;5037456;28;20041;-83
2022/04/21 04:15:01;;;;;;;17.33;8.93;;;4.90;99.90;;;;;;5037024;28;20068;-83
2022/04/21 04:17:26;;;;;;;12.57;9.10;;;4.90;99.90;;;;;;5033359;28;20099;-82
2022/04/21 04:19:52;;;;;;;14.45;9.63;;;4.90;99.90;;;;;;5036650;28;20434;-83
2022/04/21 04:22:18;;;;;;;15.23;10.18;;;4.90;99.90;;;;;;5029450;28;20133;-82
2022/04/21 04:24:44;;;;;;;15.30;10.23;;;4.90;99.90;;;;;;5034790;28;20085;-83
2022/04/21 04:27:10;;;;;;;12.77;8.88;;;4.90;99.90;;;;;;5016871;28;20111;-82
2022/04/21 04:29:35;;;;;;;16.42;9.88;;;4.90;99.90;;;;;;5020719;28;20049;-83
2022/04/21 04:32:01;;;;;;;15.45;10.25;;;4.90;99.90;;;;;;5001087;28;20442;-82
2022/04/21 04:34:27;;;;;;;13.38;9.05;;;4.90;99.90;;;;;;5020814;28;20494;-82
2022/04/21 04:36:53;;;;;;;15.05;9.95;;;4.90;99.90;;;;;;5036392;28;20060;-83
2022/04/21 04:39:19;;;;;;;16.30;9.98;;;5.00;99.90;;;;;;5036719;28;20403;-83
2022/04/21 04:44:29;;;;;;;15.05;10.18;;;5.00;99.90;;;;;;5054186;28;20056;-83
2022/04/21 04:46:58;;;;;;;17.67;10.57;;;5.10;99.90;;;;;;5054504;28;20049;-82
2022/04/21 04:49:24;;;;;;;16.30;10.63;;;5.00;99.90;;;;;;5021861;28;20053;-83
2022/04/21 04:51:50;;;;;;;20.60;10.52;;;5.10;99.90;;;;;;5016848;28;20147;-82
2022/04/21 04:54:35;;;;;;;18.92;10.35;;;5.10;99.90;;;;;;5016432;28;20045;-82
2022/04/21 04:57:01;;;;;;;17.30;10.68;;;5.30;99.90;;;;;;5033920;28;20569;-83
2022/04/21 04:59:27;;;;;;;15.55;10.13;;;5.20;99.90;;;;;;5016613;28;20045;-82
2022/04/21 05:01:53;;;;;;;16.58;9.63;;;5.10;99.90;;;;;;5034416;28;20045;-83
2022/04/21 05:04:20;;;;;;;14.73;10.35;;;5.50;99.90;;;;;;5035139;28;20041;-82
2022/04/21 05:06:48;;;;;;;13.07;9.80;;;5.20;99.90;;;;;;5052941;28;20504;-83
2022/04/21 05:09:19;;;;;;;17.48;9.80;;;5.20;99.90;;;;;;5034852;28;20041;-82
2022/04/21 05:11:46;;;;;;;17.67;9.68;;;5.30;99.90;;;;;;5049197;28;20046;-87
2022/04/21 05:14:13;;;;;;;15.02;9.43;;;5.30;99.90;;;;;;5041770;28;20067;-82
2022/04/21 05:16:42;;;;;;;14.93;10.02;;;5.40;99.90;;;;;;5038804;28;20103;-82
2022/04/21 05:19:13;;;;;;;15.60;9.60;;;5.40;99.90;;;;;;5018108;28;20077;-83
2022/04/21 05:21:39;;;;;;;;;;;5.50;99.90;;;;;;5019426;28;20430;-84
2022/04/21 05:24:06;;;;;;;15.75;10.15;;;5.50;99.90;;;;;;5008832;28;20422;-84
2022/04/21 05:26:33;;;;;;;16.70;9.38;;;5.50;99.90;;;;;;5050717;28;20052;-85
2022/04/21 05:29:00;;;;;;;15.50;9.75;;;5.60;99.90;;;;;;5053608;28;20041;-84
2022/04/21 05:31:26;;;;;;;15.13;9.40;;;5.70;99.90;;;;;;5054011;28;20045;-84
2022/04/21 05:33:54;;;;;;;15.75;9.23;;;5.80;99.90;;;;;;5035589;28;20056;-84
2022/04/21 05:36:20;;;;;;;15.35;9.57;;;5.90;99.90;;;;;;5030535;28;20037;-84
2022/04/21 05:38:47;;;;;;;13.63;9.93;;;5.90;99.90;;;;;;5033761;28;20045;-84
2022/04/21 05:41:14;;;;;;;16.08;9.70;;;6.00;99.90;;;;;;5016303;28;20146;-84
2022/04/21 05:43:44;;;;;;;16.40;10.13;;;6.00;99.90;;;;;;5015860;28;20046;-84
2022/04/21 05:46:13;;;;;;;16.67;9.32;;;6.10;99.90;;;;;;5034276;28;20059;-84
2022/04/21 05:48:40;;;;;;;12.75;8.82;;;6.10;99.90;;;;;;5010949;28;20041;-84
2022/04/21 05:51:06;;;;;;;13.93;9.23;;;6.20;99.90;;;;;;5015492;28;20517;-84
2022/04/21 05:53:36;;;;;;;11.77;8.88;;;6.30;99.90;;;;;;5035112;28;20379;-85
2022/04/21 05:56:04;;;;;;;18.15;9.57;;;6.30;99.90;;;;;;5053185;28;20055;-85
2022/04/21 05:58:30;;;;;;;14.60;8.77;;;6.40;99.90;;;;;;5035295;28;20076;-84
2022/04/21 06:00:57;;;;;;;14.68;9.50;;;6.70;99.90;;;;;;5047381;28;20038;-87
2022/04/21 06:03:23;;;;;;;14.65;9.98;;;6.50;99.90;;;;;;5045917;28;20045;-84
2022/04/21 06:05:49;;;;;;;11.57;8.32;;;6.60;99.90;;;;;;5050757;28;20037;-85
2022/04/21 06:08:14;;;;;;;15.55;9.27;;;6.70;99.90;;;;;;5055377;28;20485;-84
2022/04/21 06:10:40;;;;;;;16.20;9.27;;;6.80;99.90;;;;;;5055093;28;20110;-84
2022/04/21 06:13:06;;;;;;;15.07;9.10;;;6.90;99.90;;;;;;5055271;28;20053;-84
2022/04/21 06:15:33;;;;;;;17.92;9.60;;;6.90;99.90;;;;;;5049318;28;20116;-85
2022/04/21 06:17:59;;;;;;;23.17;9.55;;;7.20;99.90;;;;;;5016268;28;20088;-84
2022/04/21 06:20:26;;;;;;;11.27;8.60;;;7.10;99.90;;;;;;5006160;28;20502;-85
2022/04/21 06:22:52;;;;;;;13.23;9.07;;;7.20;99.90;;;;;;5018026;28;20061;-88
2022/04/21 06:25:18;;;;;;;15.63;8.82;;;7.30;99.90;;;;;;5052497;28;20044;-85
2022/04/21 06:27:44;;;;;;;14.10;8.27;;;7.40;99.90;;;;;;5017637;28;20060;-85
2022/04/21 06:30:10;;;;;;;14.10;8.00;;;7.60;99.90;;;;;;5035209;28;20056;-85
2022/04/21 06:32:36;;;;;;;14.00;7.50;;;7.80;99.90;;;;;;5050334;28;20045;-84
2022/04/21 06:35:06;;;;;;;14.38;7.70;;;8.00;99.90;;;;;;5033965;28;20056;-84
2022/04/21 06:37:34;;;;;;;12.02;7.72;;;8.20;99.90;;;;;;5052367;28;20072;-85
2022/04/21 06:39:59;;;;;;;11.45;6.68;;;8.30;99.90;;;;;;5034139;28;20049;-86
2022/04/21 06:42:25;;;;;;;9.75;6.10;;;8.50;99.90;;;;;;5018249;28;20048;-86
2022/04/21 06:50:19;;;;;;;10.73;6.40;;;8.90;99.90;;;;;;5039107;28;20097;-84
2022/04/21 06:52:44;;;;;;;9.27;5.45;;;9.00;99.90;;;;;;5039206;28;20080;-85
2022/04/21 06:55:10;;;;;;;10.02;5.82;;;9.10;99.90;;;;;;5025984;28;20045;-85
2022/04/21 06:57:36;;;;;;;9.32;4.78;;;9.20;99.90;;;;;;5036453;28;20041;-86
2022/04/21 07:00:03;;;;;;;7.60;4.68;;;9.30;99.90;;;;;;5044218;28;20132;-86
2022/04/21 07:02:32;;;;;;;6.82;4.70;;;9.50;99.90;;;;;;5056367;28;20057;-85
2022/04/21 07:05:09;;;;;;;11.05;4.80;;;9.60;99.90;;;;;;5055866;28;20096;-86
2022/04/21 07:07:35;;;;;;;8.45;4.53;;;9.80;99.90;;;;;;5038038;28;20153;-85
2022/04/21 07:10:02;;;;;;;11.20;4.68;;;9.90;99.90;;;;;;5053087;28;20420;-85
2022/04/21 07:12:32;;;;;;;8.20;5.90;;;10.10;99.90;;;;;;5053885;28;20072;-85
2022/04/21 07:14:58;;;;;;;9.10;4.70;;;10.20;99.90;;;;;;5054750;28;20072;-86
2022/04/21 07:17:24;;;;;;;8.90;4.55;;;10.30;99.90;;;;;;5034855;28;20049;-85
2022/04/21 07:19:50;;;;;;;6.30;4.55;;;10.50;99.90;;;;;;5018279;28;20057;-86
2022/04/21 07:22:19;;;;;;;5.20;3.90;;;10.50;99.90;;;;;;5036409;28;20507;-86
2022/04/21 07:24:45;;;;;;;5.10;4.20;;;10.70;99.90;;;;;;5055638;28;20475;-86
2022/04/21 07:27:11;;;;;;;7.28;4.10;;;10.90;99.90;;;;;;5027682;28;20103;-86
2022/04/21 07:29:36;;;;;;;6.45;4.00;;;10.90;99.90;;;;;;5036221;28;20050;-86
2022/04/21 07:32:03;;;;;;;5.63;3.45;;;11.20;99.90;;;;;;5026122;28;20144;-85
2022/04/21 07:34:29;;;;;;;5.78;3.50;;;11.20;99.90;;;;;;5037936;28;20135;-85
2022/04/21 07:36:56;;;;;;;4.78;2.90;;;11.60;99.90;;;;;;5055794;28;20128;-86
2022/04/21 07:39:22;;;;;;;6.25;3.28;;;11.50;99.90;;;;;;5037989;28;20320;-85
2022/04/21 07:41:47;;;;;;;4.82;2.83;;;11.70;99.90;;;;;;5018934;28;20212;-83
2022/04/21 07:44:13;;;;;;;8.10;2.90;;;11.80;99.90;;;;;;5034359;28;20132;-84
2022/04/21 07:46:39;;;;;;;3.83;2.75;;;11.90;99.90;;;;;;5001548;28;20376;-84
2022/04/21 07:51:48;;;;;;;3.50;2.17;;;12.30;99.90;;;;;;5055439;28;20059;-84
2022/04/21 07:54:14;;;;;;;3.53;2.35;;;12.40;99.90;;;;;;5054659;28;20115;-85
2022/04/21 07:56:40;;;;;;;7.55;2.65;;;12.60;99.90;;;;;;5037624;28;20512;-84
2022/04/21 07:59:05;;;;;;;4.40;2.40;;;12.60;99.90;;;;;;5037618;28;20506;-84
2022/04/21 08:01:31;;;;;;;6.38;2.58;;;12.80;99.90;;;;;;5055266;28;20486;-86
2022/04/21 08:04:02;;;;;;;4.68;2.33;;;13.30;99.10;;;;;;5042529;28;20052;-85
2022/04/21 08:06:28;;;;;;;3.63;2.42;;;13.60;97.10;;;;;;5019647;28;20045;-88
2022/04/21 08:08:55;;;;;;;5.47;2.90;;;13.80;97.10;;;;;;5001069;28;20060;-84
2022/04/21 08:11:21;;;;;;;5.13;2.42;;;13.90;96.60;;;;;;5000605;28;20100;-86
2022/04/21 08:13:47;;;;;;;6.93;2.80;;;14.10;96.70;;;;;;5034758;28;20048;-84
2022/04/21 08:16:13;;;;;;;5.00;2.55;;;14.40;95.90;;;;;;5041397;28;20487;-85
2022/04/21 08:18:38;;;;;;;5.65;2.80;;;15.00;92.20;;;;;;5034867;28;20049;-85
2022/04/21 08:21:05;;;;;;;4.18;2.20;;;16.00;82.00;;;;;;5034003;28;20053;-86
2022/04/21 08:23:36;;;;;;;7.70;2.75;;;16.80;73.80;;;;;;5017490;28;20073;-84
2022/04/21 08:34:14;;;;;;;4.95;1.90;;;20.40;54.80;;;;;;5054561;28;20084;-86
2022/04/21 08:36:39;;;;;;;4.15;2.22;;;21.10;51.90;;;;;;5054249;28;20621;-86
2022/04/21 08:39:05;;;;;;;8.80;2.15;;;21.60;49.50;;;;;;5034966;28;20081;-86
2022/04/21 08:41:34;;;;;;;4.05;2.05;;;21.90;49.10;;;;;;5054475;28;20398;-88
2022/04/21 08:44:03;;;;;;;4.53;2.40;;;22.20;47.20;;;;;;5054339;28;20402;-86
2022/04/21 08:46:32;;;;;;;3.28;1.83;;;22.30;46.60;;;;;;5052556;28;20140;-85
2022/04/21 08:49:01;;;;;;;4.50;2.00;;;22.70;45.60;;;;;;5049951;28;20072;-86
2022/04/21 08:51:28;;;;;;;5.28;2.30;;;23.10;45.20;;;;;;5019037;28;20064;-88
2022/04/21 08:53:55;;;;;;;3.90;2.60;;;23.50;44.50;;;;;;5036110;28;20461;-90
2022/04/21 08:56:22;;;;;;;7.05;2.47;;;23.60;44.00;;;;;;5036433;28;20135;-86
2022/04/21 08:58:48;;;;;;;5.28;2.45;;;23.90;43.40;;;;;;5035955;28;20483;-88
2022/04/21 09:01:15;;;;;;;4.07;2.22;;;24.10;42.40;;;;;;5016930;28;20180;-86
2022/04/21 09:03:41;;;;;;;2.80;2.30;;;24.30;42.40;;;;;;5046356;28;20512;-85
2022/04/21 09:06:06;;;;;;;5.38;2.13;;;24.50;41.60;;;;;;5005705;28;20053;-86
2022/04/21 09:08:34;;;;;;;5.18;2.10;;;24.40;41.30;;;;;;5018418;28;20056;-86
2022/04/21 09:11:08;;;;;;;2.97;2.00;;;24.40;41.60;;;;;;5047298;28;20057;-87
2022/04/21 09:13:39;;;;;;;4.63;2.20;;;24.60;40.80;;;;;;5016246;28;20056;-86
2022/04/21 09:16:07;;;;;;;6.40;2.20;;;24.50;40.80;;;;;;5016370;28;20419;-85
2022/04/21 09:18:37;;;;;;;5.47;2.00;;;24.60;40.60;;;;;;5035262;28;20056;-85
2022/04/21 09:21:11;;;;;;;8.82;2.47;;;24.70;39.80;;;;;;5039478;28;20068;-85
2022/04/21 09:23:38;;;;;;;4.18;2.20;;;24.60;39.10;;;;;;5030244;28;20061;-87
2022/04/21 09:26:15;;;;;;;4.95;2.45;;;24.50;39.20;;;;;;5052338;28;20053;-86
2022/04/21 09:28:41;;;;;;;3.83;2.25;;;24.60;39.40;;;;;;5034911;28;20061;-86
2022/04/21 09:31:09;;;;;;;2.55;2.00;;;24.40;39.50;;;;;;5019409;28;20076;-85
2022/04/21 09:33:44;;;;;;;3.70;2.42;;;24.20;39.70;;;;;;5044961;28;20061;-86
2022/04/21 09:36:10;;;;;;;3.13;2.20;;;24.20;39.50;;;;;;5014366;28;20052;-86
2022/04/21 09:39:15;;;;;;;6.10;2.25;;;24.40;39.40;;;;;;5052467;28;20067;-86
2022/04/21 09:41:44;;;;;;;6.65;1.90;;;24.70;38.50;;;;;;5033573;28;20153;-88
2022/04/21 09:46:57;;;;;;;3.47;2.40;;;24.70;39.50;;;;;;5033969;28;20087;-86
2022/04/21 09:49:36;;;;;;;5.05;2.15;;;25.20;38.90;;;;;;5054289;28;20471;-89
2022/04/21 09:52:02;;;;;;;5.07;2.05;;;25.80;38.00;;;;;;5053322;28;20131;-88
2022/04/21 09:54:31;;;;;;;5.75;2.20;;;26.10;38.20;;;;;;5054305;28;20506;-88
2022/04/21 09:56:58;;;;;;;6.60;2.10;;;26.50;37.00;;;;;;5021632;28;20456;-91
2022/04/21 09:59:24;;;;;;;5.70;1.92;;;26.50;36.70;;;;;;5054527;28;20490;-87
2022/04/21 10:01:50;;;;;;;5.15;2.35;;;26.40;36.40;;;;;;5038571;28;20057;-86
2022/04/21 10:04:19;;;;;;;9.23;2.40;;;26.60;35.80;;;;;;5040434;28;20051;-86
2022/04/21 10:06:46;;;;;;;5.25;2.10;;;26.80;36.20;;;;;;5022874;28;20044;-86
2022/04/21 10:09:15;;;;;;;2.72;1.80;;;26.90;36.40;;;;;;5039934;28;20398;-86
2022/04/21 10:11:44;;;;;;;5.35;2.10;;;26.80;36.00;;;;;;5027670;28;20049;-87
2022/04/21 10:14:17;;;;;;;3.72;1.90;;;26.80;36.30;;;;;;5020022;28;20136;-87
2022/04/21 10:16:43;;;;;;;3.70;2.17;;;27.20;36.70;;;;;;5019631;28;20037;-86
2022/04/21 10:19:13;;;;;;;5.85;1.85;;;27.40;36.10;;;;;;5019203;28;20037;-87
2022/04/21 10:22:06;;;;;;;3.67;1.95;;;27.70;35.20;;;;;;5016472;28;20052;-87
2022/04/21 10:28:37;;;;;;;3.17;1.80;;;28.10;34.00;;;;;;5048855;28;20481;-87
2022/04/21 10:31:27;;;;;;;5.10;2.22;;;28.00;34.00;;;;;;5052347;28;20049;-87
2022/04/21 10:33:54;;;;;;;7.72;1.83;;;28.20;34.80;;;;;;5054569;28;20386;-87
2022/04/21 10:36:38;;;;;;;4.63;2.20;;;28.40;34.70;;;;;;5019616;28;20049;-88
2022/04/21 10:39:56;;;;;;;3.42;1.70;;;28.60;33.70;;;;;;5036063;28;20129;-88
2022/04/21 10:42:22;;;;;;;6.88;2.03;;;28.90;33.50;;;;;;5019775;28;20529;-87
2022/04/21 10:44:49;;;;;;;3.47;2.50;;;29.10;33.40;;;;;;5036529;28;20045;-89
2022/04/21 10:47:38;;;;;;;2.20;1.83;;;29.10;32.60;;;;;;5025466;28;20051;-88
2022/04/21 10:50:17;;;;;;;4.82;2.40;;;28.80;31.80;;;;;;5045475;28;20044;-89
2022/04/21 10:57:58;;;;;;;4.05;1.75;;;29.10;33.30;;;;;;5037930;28;20053;-88
2022/04/21 11:00:27;;;;;;;3.90;2.17;;;29.20;33.00;;;;;;5054948;28;20049;-86
2022/04/21 11:03:07;;;;;;;6.07;2.13;;;29.00;33.10;;;;;;5036273;28;20510;-86
2022/04/21 11:05:34;;;;;;;3.58;1.95;;;28.70;32.00;;;;;;5035958;28;20457;-87
2022/04/21 11:08:10;;;;;;;3.92;1.83;;;28.60;32.50;;;;;;5035563;28;20096;-86
2022/04/21 11:10:42;;;;;;;4.63;2.13;;;28.60;32.80;;;;;;5035420;28;20056;-86
2022/04/21 11:13:14;;;;;;;3.58;1.90;;;29.00;32.20;;;;;;5035533;28;20053;-86
2022/04/21 11:15:58;;;;;;;5.45;2.10;;;29.10;31.70;;;;;;5035264;28;20056;-87
2022/04/21 11:18:31;;;;;;;4.30;2.13;;;29.20;31.90;;;;;;5018405;28;20053;-86
2022/04/21 11:21:23;;;;;;;3.58;1.98;;;29.40;31.80;;;;;;5049732;28;20076;-87
2022/04/21 11:23:49;;;;;;;3.63;2.38;;;29.70;31.00;;;;;;5027956;28;20059;-87
2022/04/21 11:26:14;;;;;;;5.78;2.47;;;29.70;31.60;;;;;;5034951;28;20457;-86
2022/04/21 11:28:46;;;;;;;3.63;1.88;;;29.60;32.00;;;;;;5052680;28;20045;-87
2022/04/21 11:31:13;;;;;;;4.85;2.20;;;29.50;31.40;;;;;;5035346;28;20131;-87
2022/04/21 11:33:39;;;;;;;3.45;1.75;;;29.20;31.00;;;;;;5038983;28;20060;-86
2022/04/21 11:36:10;;;;;;;2.58;1.85;;;29.10;31.30;;;;;;5022087;28;20453;-86
2022/04/21 11:38:40;;;;;;;3.75;1.90;;;29.00;31.30;;;;;;5039071;28;20037;-84
2022/04/21 11:41:08;;;;;;;4.15;1.70;;;28.80;31.60;;;;;;5038137;28;20049;-87
2022/04/21 11:43:38;;;;;;;3.67;2.08;;;28.60;31.90;;;;;;5054761;28;20052;-86
2022/04/21 11:46:09;;;;;;;4.28;1.95;;;28.70;31.80;;;;;;5038487;28;20049;-87
2022/04/21 11:48:40;;;;;;;8.50;2.00;;;28.80;31.90;;;;;;5049182;28;20136;-88
2022/04/21 11:51:07;;;;;;;10.88;2.58;;;29.00;32.10;;;;;;5020572;28;20460;-87
2022/04/21 11:53:40;;;;;;;8.88;2.30;;;29.10;32.20;;;;;;5040719;28;20445;-87
2022/04/21 11:56:09;;;;;;;5.43;2.42;;;29.10;32.20;;;;;;5017870;28;20080;-87
2022/04/21 11:58:40;;;;;;;7.72;2.10;;;28.60;31.80;;;;;;5036217;28;20053;-88
2022/04/21 12:06:53;;;;;;;4.72;2.08;;;27.30;32.60;;;;;;5017304;28;20103;-86
2022/04/21 12:09:25;;;;;;;6.68;2.13;;;27.30;33.00;;;;;;5017449;28;20053;-85
2022/04/21 12:11:54;;;;;;;7.20;2.20;;;27.20;33.10;;;;;;5001406;28;20430;-87
2022/04/21 12:14:21;;;;;;;4.03;2.33;;;27.20;33.00;;;;;;5001490;28;20525;-87
2022/04/21 12:17:09;;;;;;;3.92;2.30;;;27.20;33.40;;;;;;5002109;28;20049;-87
2022/04/21 12:19:38;;;;;;;4.07;2.33;;;27.40;33.40;;;;;;5035330;28;20046;-87
2022/04/21 12:22:18;;;;;;;5.68;2.55;;;27.90;33.80;;;;;;5033563;28;20510;-88
2022/04/21 12:24:49;;;;;;;3.38;2.47;;;28.50;33.30;;;;;;5026697;28;20080;-86
2022/04/21 12:27:17;;;;;;;9.43;2.58;;;28.30;32.10;;;;;;5037230;28;20045;-88
2022/04/21 12:29:49;;;;;;;9.25;2.67;;;27.30;32.90;;;;;;5036130;28;20065;-87
2022/04/21 12:32:25;;;;;;;7.47;2.92;;;26.70;33.60;;;;;;5021681;28;20113;-87
2022/04/21 12:34:50;;;;;;;6.93;2.70;;;26.30;33.90;;;;;;5055299;28;20499;-87
2022/04/21 12:37:27;;;;;;;6.00;2.88;;;26.00;34.60;;;;;;5055292;28;20052;-86
2022/04/21 12:39:54;;;;;;;6.15;3.00;;;25.60;34.40;;;;;;5021305;28;20041;-85
2022/04/21 12:42:20;;;;;;;4.22;2.70;;;25.20;35.40;;;;;;5020261;28;20064;-86
2022/04/21 12:44:47;;;;;;;5.72;2.90;;;24.90;36.10;;;;;;5053101;28;20041;-85
2022/04/21 12:47:21;;;;;;;3.72;3.13;;;24.70;36.70;;;;;;5037080;28;20128;-88
2022/04/21 12:49:52;;;;;;;6.47;2.80;;;24.50;37.20;;;;;;5037358;28;20077;-85
2022/04/21 12:52:41;;;;;;;8.23;3.42;;;24.30;37.20;;;;;;5028375;28;20048;-86
2022/04/21 12:55:30;;;;;;;4.78;3.05;;;24.30;38.00;;;;;;5011661;28;20529;-86
2022/04/21 12:58:05;;;;;;;5.20;3.60;;;24.40;38.00;;;;;;5036340;28;20057;-87
2022/04/21 13:00:32;;;;;;;5.88;3.13;;;24.70;38.20;;;;;;5020459;28;20587;-87
2022/04/21 13:03:01;;;;;;;7.53;2.70;;;25.10;38.00;;;;;;5035837;28;20061;-84
2022/04/21 13:05:27;;;;;;;6.05;2.90;;;25.90;37.50;;;;;;5025991;28;20045;-89
2022/04/21 13:07:54;;;;;;;3.70;2.50;;;26.60;36.60;;;;;;5036224;28;20080;-87
2022/04/21 13:10:21;;;;;;;5.28;2.75;;;27.10;35.90;;;;;;5032169;28;20052;-85
2022/04/21 13:12:47;;;;;;;5.55;2.35;;;27.30;34.50;;;;;;4999324;28;20067;-86
2022/04/21 13:15:14;;;;;;;4.25;2.75;;;27.30;34.60;;;;;;5016284;28;20487;-85
2022/04/21 13:17:42;;;;;;;3.92;2.38;;;27.40;35.00;;;;;;5030093;28;20315;-85
2022/04/21 13:20:09;;;;;;;7.10;2.67;;;27.60;34.80;;;;;;5016840;28;20057;-85
2022/04/21 13:22:35;;;;;;;4.40;2.92;;;27.60;33.70;;;;;;5023794;28;20483;-85
2022/04/21 13:25:00;;;;;;;4.55;2.70;;;27.30;34.10;;;;;;5033624;28;20049;-85
2022/04/21 13:27:29;;;;;;;6.35;2.60;;;26.70;34.80;;;;;;5015851;28;20497;-85
2022/04/21 13:29:54;;;;;;;4.60;2.53;;;26.50;35.00;;;;;;5016403;28;20064;-85
2022/04/21 13:35:06;;;;;;;9.45;3.13;;;26.10;35.80;;;;;;5016404;28;20111;-85
2022/04/21 13:37:31;;;;;;;7.05;3.38;;;26.30;36.50;;;;;;5017250;28;20103;-86
2022/04/21 13:43:22;;;;;;;6.63;3.13;;;26.80;34.90;;;;;;5056581;28;20057;-85
2022/04/21 13:45:48;;;;;;;4.03;2.85;;;26.80;35.10;;;;;;5036943;28;20103;-85
2022/04/21 13:48:14;;;;;;;4.03;2.97;;;26.40;35.40;;;;;;5016285;28;20053;-85
2022/04/21 13:50:39;;;;;;;6.00;2.90;;;25.80;35.60;;;;;;5016621;28;20388;-85
2022/04/21 13:56:48;;;;;;;3.35;2.80;;;24.10;38.50;;;;;;5045641;28;20036;-86
2022/04/21 13:59:14;;;;;;;5.78;3.13;;;24.10;39.70;;;;;;5036440;28;20056;-85
2022/04/21 14:01:41;;;;;;;4.38;2.88;;;24.90;38.70;;;;;;5043765;28;20053;-85
2022/04/21 14:04:07;;;;;;;6.93;3.22;;;25.70;38.60;;;;;;5055956;28;20053;-85